createdAt,value
2022-11-20T00:00:17.806Z,101098.53
2022-11-20T00:02:44.419Z,101095.69
2022-11-20T00:05:10.926Z,101092.66
2022-11-20T00:07:37.454Z,101090.16
2022-11-20T00:10:04.346Z,101083.09
2022-11-20T00:12:30.953Z,101081.75
2022-11-20T00:14:57.478Z,101079.22
2022-11-20T00:17:29.234Z,101083.25
2022-11-20T00:19:55.748Z,101088.47
2022-11-20T00:22:22.583Z,101083.94
2022-11-20T00:24:49.079Z,101076.91
2022-11-20T00:27:17.724Z,101073.34
2022-11-20T00:29:44.301Z,101079.56
2022-11-20T00:32:14.170Z,101081.41
2022-11-20T00:34:40.777Z,101078.56
2022-11-20T00:37:07.345Z,101078.56
2022-11-20T00:39:33.902Z,101083.59
2022-11-20T00:42:00.423Z,101087.28
2022-11-20T00:44:27.004Z,101082.44
2022-11-20T00:46:53.608Z,101081.59
2022-11-20T00:49:20.420Z,101086.28
2022-11-20T00:51:47.180Z,101075.72
2022-11-20T00:54:16.427Z,101075.72
2022-11-20T00:56:43.126Z,101073.88
2022-11-20T00:59:10.467Z,101074.38
2022-11-20T01:01:37.215Z,101070.88
2022-11-20T01:04:06.524Z,101070.00
2022-11-20T01:06:36.984Z,101073.38
2022-11-20T01:09:10.926Z,101063.81
2022-11-20T01:11:40.351Z,101061.78
2022-11-20T01:14:11.813Z,101062.66
2022-11-20T01:16:41.884Z,101064.66
2022-11-20T01:19:16.046Z,101059.78
2022-11-20T01:21:46.194Z,101057.09
2022-11-20T01:24:15.399Z,101048.03
2022-11-20T01:26:43.525Z,101049.72
2022-11-20T01:29:15.346Z,101040.66
2022-11-20T01:31:42.203Z,101043.34
2022-11-20T01:34:13.160Z,101044.34
2022-11-20T01:36:40.174Z,101044.34
2022-11-20T01:39:11.564Z,101045.34
2022-11-20T01:41:56.860Z,101031.09
2022-11-20T01:44:51.034Z,101031.91
2022-11-20T01:47:23.754Z,101030.91
2022-11-20T01:50:14.599Z,101024.56
2022-11-20T01:52:49.450Z,101025.38
2022-11-20T01:55:20.925Z,101019.53
2022-11-20T01:57:48.894Z,101024.56
2022-11-20T02:00:20.793Z,101014.84
2022-11-20T02:02:52.497Z,101017.66
2022-11-20T02:05:19.010Z,101013.66
2022-11-20T02:07:47.093Z,101013.34
2022-11-20T02:10:14.014Z,101015.84
2022-11-20T02:13:18.983Z,101008.44
2022-11-20T02:15:46.454Z,101002.41
2022-11-20T02:18:16.489Z,101005.75
2022-11-20T02:20:46.316Z,101003.59
2022-11-20T02:23:25.011Z,101009.28
2022-11-20T02:25:52.523Z,101005.63
2022-11-20T02:28:19.547Z,101004.94
2022-11-20T02:30:46.122Z,101006.44
2022-11-20T02:33:13.549Z,101007.13
2022-11-20T02:35:46.467Z,101006.94
2022-11-20T02:38:14.589Z,100998.72
2022-11-20T02:40:42.013Z,101001.41
2022-11-20T02:43:08.937Z,101001.09
2022-11-20T02:45:35.461Z,100996.03
2022-11-20T02:48:02.101Z,100990.66
2022-11-20T02:50:28.665Z,100988.97
2022-11-20T02:52:55.164Z,100988.97
2022-11-20T02:55:21.734Z,100985.28
2022-11-20T02:57:48.221Z,100990.66
2022-11-20T03:00:15.202Z,100982.59
2022-11-20T03:02:41.730Z,100984.97
2022-11-20T03:05:08.366Z,100981.59
2022-11-20T03:07:34.974Z,100986.81
2022-11-20T03:10:01.946Z,100978.25
2022-11-20T03:12:28.438Z,100979.75
2022-11-20T03:14:54.999Z,100981.94
2022-11-20T03:17:21.542Z,100979.59
2022-11-20T03:19:48.051Z,100972.91
2022-11-20T03:22:14.753Z,100971.34
2022-11-20T03:24:41.264Z,100967.84
2022-11-20T03:27:07.951Z,100977.75
2022-11-20T03:29:36.212Z,100988.31
2022-11-20T03:32:02.793Z,100980.25
2022-11-20T03:34:29.319Z,100970.69
2022-11-20T03:36:55.885Z,100967.84
2022-11-20T03:39:22.621Z,100967.16
2022-11-20T03:41:49.351Z,100966.34
2022-11-20T03:44:15.926Z,100967.34
2022-11-20T03:46:42.404Z,100960.47
2022-11-20T03:49:08.958Z,100964.16
2022-11-20T03:51:37.081Z,100964.16
2022-11-20T03:54:07.278Z,100968.19
2022-11-20T03:56:39.098Z,100961.78
2022-11-20T03:59:06.533Z,100959.78
2022-11-20T04:01:36.116Z,100966.16
2022-11-20T04:04:03.736Z,100962.47
2022-11-20T04:06:34.885Z,100955.78
2022-11-20T04:09:01.400Z,100953.59
2022-11-20T04:11:30.386Z,100957.59
2022-11-20T04:13:59.551Z,100952.41
2022-11-20T04:16:29.607Z,100952.75
2022-11-20T04:18:58.609Z,100949.72
2022-11-20T04:21:25.927Z,100935.81
2022-11-20T04:23:56.308Z,100936.66
2022-11-20T04:26:25.024Z,100942.69
2022-11-20T04:28:51.762Z,100933.63
2022-11-20T04:31:20.985Z,100937.31
2022-11-20T04:33:49.130Z,100939.00
2022-11-20T04:36:23.082Z,100931.81
2022-11-20T04:39:00.379Z,100932.28
2022-11-20T04:41:29.475Z,100932.63
2022-11-20T04:44:00.737Z,100934.63
2022-11-20T04:46:28.482Z,100938.47
2022-11-20T04:48:55.476Z,100930.63
2022-11-20T04:51:22.147Z,100934.16
2022-11-20T04:53:48.720Z,100927.28
2022-11-20T04:56:15.518Z,100933.63
2022-11-20T04:59:01.443Z,100930.44
2022-11-20T05:01:28.035Z,100934.44
2022-11-20T05:03:54.640Z,100934.97
2022-11-20T05:06:22.737Z,100934.63
2022-11-20T05:08:49.416Z,100944.16
2022-11-20T05:11:19.220Z,100929.25
2022-11-20T05:13:45.780Z,100919.53
2022-11-20T05:16:15.984Z,100917.84
2022-11-20T05:18:42.624Z,100924.88
2022-11-20T05:21:10.853Z,100920.03
2022-11-20T05:23:38.077Z,100904.78
2022-11-20T05:26:06.165Z,100901.75
2022-11-20T05:28:33.378Z,100903.44
2022-11-20T05:31:11.510Z,100908.81
2022-11-20T05:33:40.796Z,100896.88
2022-11-20T05:36:07.865Z,100900.56
2022-11-20T05:38:34.812Z,100902.41
2022-11-20T05:41:21.312Z,100894.84
2022-11-20T05:43:49.515Z,100884.31
2022-11-20T05:46:17.893Z,100881.09
2022-11-20T05:48:45.901Z,100881.09
2022-11-20T05:51:15.135Z,100878.28
2022-11-20T05:53:46.853Z,100878.13
2022-11-20T05:56:18.376Z,100882.63
2022-11-20T05:58:45.438Z,100877.59
2022-11-20T06:01:15.354Z,100879.94
2022-11-20T06:03:48.440Z,100885.97
2022-11-20T06:06:16.536Z,100883.63
2022-11-20T06:08:43.406Z,100882.09
2022-11-20T06:11:12.128Z,100883.25
2022-11-20T06:13:42.060Z,100877.38
2022-11-20T06:16:10.174Z,100873.53
2022-11-20T06:18:36.929Z,100875.22
2022-11-20T06:21:03.417Z,100876.72
2022-11-20T06:23:31.853Z,100886.44
2022-11-20T06:26:01.747Z,100876.56
2022-11-20T06:28:28.257Z,100875.75
2022-11-20T06:30:54.764Z,100884.59
2022-11-20T06:33:21.317Z,100881.91
2022-11-20T06:35:47.976Z,100879.22
2022-11-20T06:38:14.626Z,100879.06
2022-11-20T06:40:42.340Z,100886.25
2022-11-20T06:43:10.465Z,100891.28
2022-11-20T06:45:37.624Z,100885.06
2022-11-20T06:48:04.948Z,100882.25
2022-11-20T06:50:31.438Z,100888.63
2022-11-20T06:53:01.833Z,100887.63
2022-11-20T06:55:28.334Z,100881.91
2022-11-20T06:57:56.011Z,100883.09
2022-11-20T07:00:22.658Z,100885.94
2022-11-20T07:02:49.331Z,100891.94
2022-11-20T07:05:15.833Z,100881.56
2022-11-20T07:07:42.460Z,100884.94
2022-11-20T07:10:09.708Z,100879.72
2022-11-20T07:12:36.803Z,100886.25
2022-11-20T07:15:03.919Z,100889.78
2022-11-20T07:17:30.440Z,100887.28
2022-11-20T07:19:57.059Z,100893.00
2022-11-20T07:22:23.632Z,100879.94
2022-11-20T07:24:50.128Z,100870.25
2022-11-20T07:27:16.645Z,100875.25
2022-11-20T07:29:43.124Z,100887.00
2022-11-20T07:32:09.635Z,100886.19
2022-11-20T07:34:36.453Z,100884.50
2022-11-20T07:37:07.463Z,100886.31
2022-11-20T07:39:36.658Z,100880.13
2022-11-20T07:42:07.544Z,100887.34
2022-11-20T07:44:34.353Z,100884.31
2022-11-20T07:47:00.984Z,100882.16
2022-11-20T07:49:27.556Z,100882.66
2022-11-20T07:51:54.827Z,100889.03
2022-11-20T07:54:22.403Z,100880.97
2022-11-20T07:56:49.903Z,100896.59
2022-11-20T07:59:17.112Z,100875.31
2022-11-20T08:01:44.036Z,100887.19
2022-11-20T08:04:10.675Z,100885.69
2022-11-20T08:06:37.676Z,100883.69
2022-11-20T08:09:04.342Z,100879.31
2022-11-20T08:11:49.190Z,100879.31
2022-11-20T08:14:16.407Z,100874.63
2022-11-20T08:16:45.917Z,100887.88
2022-11-20T08:19:14.379Z,100887.03
2022-11-20T08:21:41.759Z,100876.97
2022-11-20T08:24:10.622Z,100886.69
2022-11-20T08:26:39.325Z,100884.69
2022-11-20T08:29:06.625Z,100886.34
2022-11-20T08:31:33.483Z,100886.03
2022-11-20T08:34:00.175Z,100885.84
2022-11-20T08:36:29.201Z,100880.66
2022-11-20T08:38:56.915Z,100891.72
2022-11-20T08:41:29.539Z,100887.34
2022-11-20T08:44:06.203Z,100890.03
2022-11-20T08:46:38.267Z,100891.53
2022-11-20T08:49:07.007Z,100896.41
2022-11-20T08:51:33.811Z,100891.56
2022-11-20T08:54:00.465Z,100898.75
2022-11-20T08:56:27.093Z,100893.38
2022-11-20T09:01:40.566Z,100892.22
2022-11-20T09:04:07.630Z,100894.06
2022-11-20T09:06:34.201Z,100892.22
2022-11-20T09:09:06.129Z,100891.38
2022-11-20T09:11:33.396Z,100889.53
2022-11-20T09:13:59.968Z,100897.41
2022-11-20T09:16:26.480Z,100890.19
2022-11-20T09:21:39.588Z,100896.88
2022-11-20T09:24:06.461Z,100906.44
2022-11-20T09:26:32.967Z,100904.09
2022-11-20T09:28:59.466Z,100908.06
2022-11-20T09:31:27.087Z,100907.91
2022-11-20T09:33:53.660Z,100909.25
2022-11-20T09:36:20.577Z,100905.69
2022-11-20T09:38:47.980Z,100899.31
2022-11-20T09:41:32.518Z,100901.50
2022-11-20T09:44:19.813Z,100908.03
2022-11-20T09:47:02.585Z,100894.91
2022-11-20T09:49:59.395Z,100897.56
2022-11-20T09:52:59.657Z,100898.22
2022-11-20T09:55:27.307Z,100906.47
2022-11-20T09:57:54.856Z,100905.78
2022-11-20T10:00:22.323Z,100902.41
2022-11-20T10:03:02.719Z,100907.59
2022-11-20T10:05:38.202Z,100905.06
2022-11-20T10:08:25.093Z,100893.47
2022-11-20T10:11:05.623Z,100890.47
2022-11-20T10:13:57.610Z,100887.03
2022-11-20T10:16:29.995Z,100891.41
2022-11-20T10:19:17.631Z,100892.28
2022-11-20T10:21:56.671Z,100886.16
2022-11-20T10:24:24.936Z,100879.25
2022-11-20T10:27:19.662Z,100878.19
2022-11-20T10:29:55.199Z,100866.34
2022-11-20T10:32:30.348Z,100875.41
2022-11-20T10:35:06.095Z,100876.00
2022-11-20T10:37:35.910Z,100865.53
2022-11-20T10:40:11.233Z,100866.38
2022-11-20T10:42:43.537Z,100867.53
2022-11-20T10:45:25.030Z,100854.41
2022-11-20T10:48:08.283Z,100863.34
2022-11-20T10:50:41.365Z,100861.94
2022-11-20T10:53:36.999Z,100866.84
2022-11-20T10:56:15.003Z,100872.91
2022-11-20T10:58:53.204Z,100854.06
2022-11-20T11:01:25.122Z,100857.41
2022-11-20T11:03:56.692Z,100843.31
2022-11-20T11:06:27.199Z,100851.63
2022-11-20T11:08:57.709Z,100846.84
2022-11-20T11:11:28.955Z,100852.13
2022-11-20T11:14:07.143Z,100850.28
2022-11-20T11:16:33.859Z,100845.53
2022-11-20T11:19:15.801Z,100847.84
2022-11-20T11:21:55.579Z,100836.41
2022-11-20T11:24:43.067Z,100844.25
2022-11-20T11:27:17.500Z,100842.16
2022-11-20T11:29:44.768Z,100845.25
2022-11-20T11:32:16.364Z,100844.88
2022-11-20T11:34:42.931Z,100846.91
2022-11-20T11:37:36.903Z,100844.72
2022-11-20T11:42:59.092Z,100847.88
2022-11-20T11:45:25.776Z,100845.25
2022-11-20T11:47:55.008Z,100840.59
2022-11-20T11:50:23.803Z,100839.38
2022-11-20T11:53:17.690Z,100840.34
2022-11-20T11:55:54.798Z,100838.50
2022-11-20T11:58:45.048Z,100830.16
2022-11-20T12:01:34.406Z,100832.00
2022-11-20T12:04:15.417Z,100832.06
2022-11-20T12:06:46.445Z,100827.72
2022-11-20T12:09:13.552Z,100824.75
2022-11-20T12:11:46.805Z,100826.47
2022-11-20T12:14:25.087Z,100823.13
2022-11-20T12:16:53.817Z,100824.81
2022-11-20T12:19:21.219Z,100820.09
2022-11-20T12:22:07.473Z,100825.56
2022-11-20T12:24:58.944Z,100814.25
2022-11-20T12:27:28.470Z,100812.34
2022-11-20T12:30:10.162Z,100812.03
2022-11-20T12:32:42.514Z,100807.97
2022-11-20T12:35:21.205Z,100811.84
2022-11-20T12:38:00.427Z,100802.28
2022-11-20T12:40:40.997Z,100802.06
2022-11-20T12:43:45.745Z,100799.47
2022-11-20T12:46:39.908Z,100797.84
2022-11-20T12:49:28.122Z,100790.19
2022-11-20T12:52:10.177Z,100795.63
2022-11-20T12:54:55.003Z,100792.28
2022-11-20T12:57:34.944Z,100797.63
2022-11-20T13:00:11.916Z,100795.38
2022-11-20T13:02:59.830Z,100792.28
2022-11-20T13:05:38.695Z,100780.72
2022-11-20T13:08:09.854Z,100784.53
2022-11-20T13:10:52.781Z,100787.06
2022-11-20T13:13:56.768Z,100790.59
2022-11-20T13:16:56.237Z,100787.50
2022-11-20T13:19:23.280Z,100785.00
2022-11-20T13:21:51.567Z,100789.97
2022-11-20T13:24:28.909Z,100786.38
2022-11-20T13:27:08.395Z,100788.19
2022-11-20T13:29:37.206Z,100785.66
2022-11-20T13:32:21.066Z,100781.50
2022-11-20T13:35:02.585Z,100772.13
2022-11-20T13:37:35.297Z,100775.22
2022-11-20T13:40:11.525Z,100773.56
2022-11-20T13:42:46.450Z,100760.88
2022-11-20T13:45:26.032Z,100766.09
2022-11-20T13:47:53.773Z,100762.09
2022-11-20T13:50:33.085Z,100761.09
2022-11-20T13:53:19.866Z,100759.03
2022-11-20T13:55:46.300Z,100763.16
2022-11-20T13:58:37.228Z,100758.13
2022-11-20T14:01:16.139Z,100751.50
2022-11-20T14:04:05.257Z,100747.75
2022-11-20T14:06:33.073Z,100753.97
2022-11-20T14:09:01.040Z,100751.47
2022-11-20T14:11:32.035Z,100752.69
2022-11-20T14:14:15.072Z,100745.81
2022-11-20T14:16:42.054Z,100750.56
2022-11-20T14:19:20.393Z,100751.22
2022-11-20T14:22:08.972Z,100759.50
2022-11-20T14:24:35.683Z,100743.91
2022-11-20T14:27:03.168Z,100755.72
2022-11-20T14:29:34.356Z,100750.97
2022-11-20T14:32:02.366Z,100739.94
2022-11-20T14:34:31.177Z,100744.09
2022-11-20T14:37:02.819Z,100741.59
2022-11-20T14:39:36.103Z,100737.22
2022-11-20T14:42:15.594Z,100744.03
2022-11-20T14:44:43.273Z,100736.72
2022-11-20T14:47:13.276Z,100734.03
2022-11-20T14:49:41.000Z,100736.06
2022-11-20T14:52:18.217Z,100731.28
2022-11-20T14:54:53.614Z,100734.16
2022-11-20T14:57:30.530Z,100730.41
2022-11-20T15:00:15.363Z,100723.38
2022-11-20T15:02:47.025Z,100727.91
2022-11-20T15:05:15.188Z,100728.94
2022-11-20T15:07:47.008Z,100720.69
2022-11-20T15:10:22.538Z,100710.53
2022-11-20T15:12:52.052Z,100705.66
2022-11-20T15:15:31.978Z,100710.53
2022-11-20T15:17:59.569Z,100712.69
2022-11-20T15:20:31.291Z,100707.91
2022-11-20T15:22:57.919Z,100703.13
2022-11-20T15:25:25.640Z,100706.88
2022-11-20T15:27:56.896Z,100698.16
2022-11-20T15:30:25.113Z,100695.25
2022-11-20T15:32:51.821Z,100688.03
2022-11-20T15:35:18.377Z,100687.81
2022-11-20T15:37:44.917Z,100696.66
2022-11-20T15:40:11.899Z,100691.41
2022-11-20T15:42:38.430Z,100701.72
2022-11-20T15:45:05.371Z,100685.47
2022-11-20T15:47:35.250Z,100687.28
2022-11-20T15:50:02.291Z,100681.63
2022-11-20T15:52:36.362Z,100693.03
2022-11-20T15:55:11.556Z,100689.13
2022-11-20T15:57:38.120Z,100677.97
2022-11-20T16:00:05.256Z,100683.72
2022-11-20T16:02:31.801Z,100676.59
2022-11-20T16:04:58.307Z,100667.34
2022-11-20T16:07:24.884Z,100667.56
2022-11-20T16:09:51.409Z,100664.47
2022-11-20T16:12:37.973Z,100665.28
2022-11-20T16:15:23.615Z,100666.91
2022-11-20T16:17:50.139Z,100668.75
2022-11-20T16:20:16.773Z,100663.38
2022-11-20T16:22:43.312Z,100664.19
2022-11-20T16:25:09.882Z,100662.53
2022-11-20T16:27:36.897Z,100661.03
2022-11-20T16:30:03.619Z,100661.63
2022-11-20T16:32:30.180Z,100658.47
2022-11-20T16:34:56.661Z,100650.13
2022-11-20T16:37:23.262Z,100655.88
2022-11-20T16:39:49.784Z,100655.59
2022-11-20T16:42:16.351Z,100648.72
2022-11-20T16:44:42.844Z,100652.47
2022-11-20T16:47:09.381Z,100663.13
2022-11-20T16:49:35.893Z,100653.75
2022-11-20T16:52:02.449Z,100644.00
2022-11-20T16:54:28.968Z,100639.03
2022-11-20T16:56:55.531Z,100645.59
2022-11-20T16:59:22.309Z,100639.94
2022-11-20T17:01:50.956Z,100640.50
2022-11-20T17:04:17.742Z,100637.53
2022-11-20T17:06:44.758Z,100635.59
2022-11-20T17:09:11.727Z,100639.03
2022-11-20T17:11:38.491Z,100643.28
2022-11-20T17:14:07.499Z,100640.94
2022-11-20T17:16:36.144Z,100630.56
2022-11-20T17:19:05.237Z,100632.59
2022-11-20T17:21:33.008Z,100634.16
2022-11-20T17:24:11.731Z,100638.16
2022-11-20T17:26:40.687Z,100629.22
2022-11-20T17:29:10.667Z,100625.91
2022-11-20T17:31:38.714Z,100626.63
2022-11-20T17:34:06.745Z,100618.75
2022-11-20T17:36:33.635Z,100625.31
2022-11-20T17:39:00.611Z,100618.16
2022-11-20T17:41:28.831Z,100616.69
2022-11-20T17:44:00.182Z,100616.38
2022-11-20T17:46:34.786Z,100624.59
2022-11-20T17:49:02.337Z,100620.44
2022-11-20T17:51:32.604Z,100622.97
2022-11-20T17:54:01.332Z,100618.78
2022-11-20T17:56:53.500Z,100624.50
2022-11-20T17:59:20.395Z,100625.75
2022-11-20T18:01:47.094Z,100618.53
2022-11-20T18:04:14.499Z,100620.56
2022-11-20T18:06:42.409Z,100626.97
2022-11-20T18:09:09.350Z,100618.53
2022-11-20T18:11:39.085Z,100624.38
2022-11-20T18:14:29.236Z,100626.69
2022-11-20T18:16:57.993Z,100618.34
2022-11-20T18:19:32.133Z,100625.75
2022-11-20T18:22:01.395Z,100624.09
2022-11-20T18:24:28.166Z,100615.66
2022-11-20T18:26:54.866Z,100618.19
2022-11-20T18:29:21.885Z,100611.16
2022-11-20T18:31:48.945Z,100619.38
2022-11-20T18:34:15.629Z,100619.84
2022-11-20T18:36:42.859Z,100615.13
2022-11-20T18:39:11.993Z,100601.72
2022-11-20T18:41:57.471Z,100608.94
2022-11-20T18:44:45.445Z,100615.31
2022-11-20T18:47:15.182Z,100610.53
2022-11-20T18:49:43.060Z,100606.00
2022-11-20T18:52:09.606Z,100599.25
2022-11-20T18:54:36.983Z,100598.25
2022-11-20T18:57:05.144Z,100587.50
2022-11-20T18:59:32.211Z,100594.56
2022-11-20T19:01:58.882Z,100588.34
2022-11-20T19:04:25.842Z,100586.88
2022-11-20T19:06:56.137Z,100589.19
2022-11-20T19:09:24.336Z,100590.47
2022-11-20T19:11:51.546Z,100595.50
2022-11-20T19:14:18.279Z,100595.03
2022-11-20T19:16:44.880Z,100584.09
2022-11-20T19:19:11.503Z,100588.16
2022-11-20T19:21:38.344Z,100581.94
2022-11-20T19:24:05.311Z,100577.06
2022-11-20T19:26:32.203Z,100574.38
2022-11-20T19:28:58.870Z,100562.44
2022-11-20T19:31:27.069Z,100567.63
2022-11-20T19:33:57.779Z,100569.97
2022-11-20T19:36:27.720Z,100557.53
2022-11-20T19:38:55.109Z,100553.84
2022-11-20T19:41:29.143Z,100556.53
2022-11-20T19:44:00.957Z,100551.50
2022-11-20T19:46:29.162Z,100541.06
2022-11-20T19:48:56.605Z,100550.44
2022-11-20T19:51:29.854Z,100543.38
2022-11-20T19:53:57.807Z,100536.06
2022-11-20T19:56:25.261Z,100533.38
2022-11-20T19:58:53.637Z,100534.19
2022-11-20T20:01:23.531Z,100529.56
2022-11-20T20:03:51.449Z,100526.59
2022-11-20T20:06:25.415Z,100523.91
2022-11-20T20:09:01.042Z,100523.25
2022-11-20T20:11:30.052Z,100522.75
2022-11-20T20:13:59.051Z,100516.75
2022-11-20T20:16:28.011Z,100510.25
2022-11-20T20:19:00.915Z,100511.63
2022-11-20T20:21:28.210Z,100512.00
2022-11-20T20:23:55.636Z,100508.53
2022-11-20T20:26:24.032Z,100503.41
2022-11-20T20:28:51.078Z,100503.41
2022-11-20T20:31:21.428Z,100514.25
2022-11-20T20:33:47.987Z,100512.63
2022-11-20T20:36:16.782Z,100508.97
2022-11-20T20:38:44.278Z,100507.38
2022-11-20T20:41:10.835Z,100502.88
2022-11-20T20:43:56.881Z,100504.59
2022-11-20T20:46:24.326Z,100505.66
2022-11-20T20:48:54.347Z,100498.16
2022-11-20T20:51:22.810Z,100495.66
2022-11-20T20:53:50.130Z,100491.28
2022-11-20T20:56:17.758Z,100485.13
2022-11-20T20:58:44.479Z,100489.88
2022-11-20T21:01:16.757Z,100492.31
2022-11-20T21:03:43.653Z,100484.41
2022-11-20T21:06:11.423Z,100492.75
2022-11-20T21:08:40.680Z,100495.44
2022-11-20T21:11:13.763Z,100491.63
2022-11-20T21:13:43.139Z,100487.25
2022-11-20T21:16:11.212Z,100485.59
2022-11-20T21:18:37.836Z,100481.59
2022-11-20T21:21:25.446Z,100491.34
2022-11-20T21:23:53.800Z,100493.22
2022-11-20T21:26:20.751Z,100500.16
2022-11-20T21:28:47.921Z,100497.28
2022-11-20T21:31:18.773Z,100491.44
2022-11-20T21:33:48.435Z,100495.63
2022-11-20T21:36:18.199Z,100489.75
2022-11-20T21:38:45.666Z,100487.94
2022-11-20T21:41:14.117Z,100478.91
2022-11-20T21:43:43.138Z,100477.88
2022-11-20T21:46:13.071Z,100464.88
2022-11-20T21:48:41.628Z,100461.34
2022-11-20T21:51:19.306Z,100458.03
2022-11-20T21:53:47.508Z,100452.34
2022-11-20T21:56:20.325Z,100459.88
2022-11-20T21:58:48.442Z,100451.34
2022-11-20T22:01:15.003Z,100451.72
2022-11-20T22:03:42.575Z,100436.81
2022-11-20T22:06:10.589Z,100441.50
2022-11-20T22:08:38.532Z,100432.47
2022-11-20T22:11:07.664Z,100440.19
2022-11-20T22:13:52.906Z,100431.38
2022-11-20T22:16:19.710Z,100428.19
2022-11-20T22:18:48.393Z,100431.88
2022-11-20T22:21:16.998Z,100428.38
2022-11-20T22:23:43.738Z,100427.88
2022-11-20T22:26:13.134Z,100431.25
2022-11-20T22:28:40.422Z,100437.75
2022-11-20T22:31:09.400Z,100428.41
2022-11-20T22:33:37.494Z,100433.41
2022-11-20T22:36:10.083Z,100434.09
2022-11-20T22:38:39.505Z,100441.75
2022-11-20T22:41:10.608Z,100430.09
2022-11-20T22:43:37.987Z,100434.78
2022-11-20T22:46:10.288Z,100437.28
2022-11-20T22:48:39.038Z,100434.25
2022-11-20T22:51:14.301Z,100438.13
2022-11-20T22:53:42.538Z,100437.28
2022-11-20T22:56:12.543Z,100431.09
2022-11-20T22:58:41.212Z,100429.41
2022-11-20T23:01:14.973Z,100435.59
2022-11-20T23:03:43.607Z,100429.06
2022-11-20T23:06:10.864Z,100433.09
2022-11-20T23:08:38.769Z,100432.78
2022-11-20T23:11:11.530Z,100426.94
2022-11-20T23:13:38.434Z,100419.22
2022-11-20T23:16:07.763Z,100420.38
2022-11-20T23:18:35.006Z,100415.56
2022-11-20T23:21:13.135Z,100414.38
2022-11-20T23:23:40.499Z,100415.72
2022-11-20T23:26:10.373Z,100412.38
2022-11-20T23:28:37.942Z,100410.72
2022-11-20T23:31:05.156Z,100409.38
2022-11-20T23:33:32.323Z,100403.34
2022-11-20T23:35:58.801Z,100404.69
2022-11-20T23:38:25.335Z,100403.34
2022-11-20T23:40:52.446Z,100405.69
2022-11-20T23:43:21.044Z,100398.66
2022-11-20T23:45:49.961Z,100398.31
2022-11-20T23:48:17.303Z,100393.81
2022-11-20T23:50:44.891Z,100395.81
2022-11-20T23:53:12.849Z,100396.63
2022-11-20T23:55:39.339Z,100385.47
2022-11-20T23:58:05.981Z,100386.94
